sensor_id;sensor_type;location;lat;lon;timestamp;pressure;altitude;pressure_sealevel;temperature;humidity
33286;BME280;19656;50.096;20.014;2022-11-15T00:00:28;99385.20;;;7.90;72.91
33286;BME280;19656;50.096;20.014;2022-11-15T00:05:50;99380.89;;;7.92;73.12
33286;BME280;19656;50.096;20.014;2022-11-15T00:11:12;99378.13;;;7.90;73.05
33286;BME280;19656;50.096;20.014;2022-11-15T00:16:34;99379.30;;;7.84;73.24
33286;BME280;19656;50.096;20.014;2022-11-15T00:21:55;99377.42;;;7.82;73.39
33286;BME280;19656;50.096;20.014;2022-11-15T00:27:17;99372.77;;;7.83;73.31
33286;BME280;19656;50.096;20.014;2022-11-15T00:32:38;99364.84;;;7.87;73.28
33286;BME280;19656;50.096;20.014;2022-11-15T00:38:00;99359.45;;;7.89;73.09
33286;BME280;19656;50.096;20.014;2022-11-15T00:43:22;99356.36;;;7.87;73.01
33286;BME280;19656;50.096;20.014;2022-11-15T00:48:44;99346.19;;;7.86;73.00
33286;BME280;19656;50.096;20.014;2022-11-15T00:54:05;99342.16;;;7.80;72.95
33286;BME280;19656;50.096;20.014;2022-11-15T00:59:27;99339.64;;;7.74;73.12
33286;BME280;19656;50.096;20.014;2022-11-15T01:04:48;99338.77;;;7.70;73.24
33286;BME280;19656;50.096;20.014;2022-11-15T01:10:10;99341.08;;;7.69;73.24
33286;BME280;19656;50.096;20.014;2022-11-15T01:15:32;99336.23;;;7.75;73.14
33286;BME280;19656;50.096;20.014;2022-11-15T01:20:54;99332.45;;;7.76;73.08
33286;BME280;19656;50.096;20.014;2022-11-15T01:26:16;99335.66;;;7.76;73.04
33286;BME280;19656;50.096;20.014;2022-11-15T01:31:37;99329.27;;;7.73;73.11
33286;BME280;19656;50.096;20.014;2022-11-15T01:37:00;99326.20;;;7.70;72.88
33286;BME280;19656;50.096;20.014;2022-11-15T01:42:21;99325.35;;;7.66;72.85
33286;BME280;19656;50.096;20.014;2022-11-15T01:47:49;99320.36;;;7.59;72.80
33286;BME280;19656;50.096;20.014;2022-11-15T01:53:12;99321.70;;;7.53;72.75
33286;BME280;19656;50.096;20.014;2022-11-15T01:58:34;99315.00;;;7.53;72.64
33286;BME280;19656;50.096;20.014;2022-11-15T02:04:03;99306.79;;;7.58;72.75
33286;BME280;19656;50.096;20.014;2022-11-15T02:09:29;99299.45;;;7.57;72.36
33286;BME280;19656;50.096;20.014;2022-11-15T02:14:53;99298.55;;;7.57;72.52
33286;BME280;19656;50.096;20.014;2022-11-15T02:31:25;99289.86;;;7.43;72.65
33286;BME280;19656;50.096;20.014;2022-11-15T02:42:26;99275.55;;;7.54;72.67
33286;BME280;19656;50.096;20.014;2022-11-15T02:48:08;99268.97;;;7.48;72.53
33286;BME280;19656;50.096;20.014;2022-11-15T02:53:31;99272.08;;;7.42;72.66
33286;BME280;19656;50.096;20.014;2022-11-15T03:04:54;99266.54;;;7.32;72.64
33286;BME280;19656;50.096;20.014;2022-11-15T03:10:22;99253.98;;;7.24;72.92
33286;BME280;19656;50.096;20.014;2022-11-15T03:15:56;99251.70;;;7.24;73.27
33286;BME280;19656;50.096;20.014;2022-11-15T03:21:20;99246.27;;;7.27;73.15
33286;BME280;19656;50.096;20.014;2022-11-15T03:26:43;99250.67;;;7.23;73.09
33286;BME280;19656;50.096;20.014;2022-11-15T03:32:12;99248.08;;;7.18;73.03
33286;BME280;19656;50.096;20.014;2022-11-15T03:37:44;99234.80;;;7.19;73.13
33286;BME280;19656;50.096;20.014;2022-11-15T03:49:09;99227.60;;;7.10;72.92
33286;BME280;19656;50.096;20.014;2022-11-15T03:54:32;99217.55;;;7.02;72.88
33286;BME280;19656;50.096;20.014;2022-11-15T03:59:53;99211.14;;;6.96;73.38
33286;BME280;19656;50.096;20.014;2022-11-15T04:05:15;99206.40;;;7.00;73.24
33286;BME280;19656;50.096;20.014;2022-11-15T04:10:36;99194.21;;;7.04;73.05
33286;BME280;19656;50.096;20.014;2022-11-15T04:15:58;99181.77;;;7.09;73.42
33286;BME280;19656;50.096;20.014;2022-11-15T04:21:19;99173.10;;;7.14;73.36
33286;BME280;19656;50.096;20.014;2022-11-15T04:26:59;99167.81;;;7.25;73.06
33286;BME280;19656;50.096;20.014;2022-11-15T04:32:21;99160.04;;;7.18;72.67
33286;BME280;19656;50.096;20.014;2022-11-15T04:37:42;99155.98;;;7.06;72.60
33286;BME280;19656;50.096;20.014;2022-11-15T04:43:10;99152.77;;;6.92;72.87
33286;BME280;19656;50.096;20.014;2022-11-15T04:48:31;99148.33;;;6.88;73.07
33286;BME280;19656;50.096;20.014;2022-11-15T04:53:53;99145.73;;;6.92;73.09
33286;BME280;19656;50.096;20.014;2022-11-15T04:59:14;99148.92;;;6.95;73.23
33286;BME280;19656;50.096;20.014;2022-11-15T05:04:36;99140.64;;;7.02;73.56
33286;BME280;19656;50.096;20.014;2022-11-15T05:09:57;99131.56;;;7.04;73.07
33286;BME280;19656;50.096;20.014;2022-11-15T05:15:19;99126.77;;;7.04;73.23
33286;BME280;19656;50.096;20.014;2022-11-15T05:20:40;99120.54;;;6.99;72.88
33286;BME280;19656;50.096;20.014;2022-11-15T05:26:03;99123.94;;;6.90;72.77
33286;BME280;19656;50.096;20.014;2022-11-15T05:31:29;99121.85;;;6.85;72.79
33286;BME280;19656;50.096;20.014;2022-11-15T05:36:50;99114.27;;;6.85;72.72
33286;BME280;19656;50.096;20.014;2022-11-15T05:42:14;99112.23;;;6.95;72.33
33286;BME280;19656;50.096;20.014;2022-11-15T05:47:37;99110.43;;;6.88;71.98
33286;BME280;19656;50.096;20.014;2022-11-15T05:53:01;99112.77;;;6.79;71.75
33286;BME280;19656;50.096;20.014;2022-11-15T05:58:25;99118.86;;;6.65;71.72
33286;BME280;19656;50.096;20.014;2022-11-15T06:03:47;99123.79;;;6.58;72.13
33286;BME280;19656;50.096;20.014;2022-11-15T06:09:08;99114.00;;;6.56;72.58
33286;BME280;19656;50.096;20.014;2022-11-15T06:14:30;99111.83;;;6.57;72.80
33286;BME280;19656;50.096;20.014;2022-11-15T06:19:51;99104.14;;;6.64;72.81
33286;BME280;19656;50.096;20.014;2022-11-15T06:25:13;99099.45;;;6.66;72.83
33286;BME280;19656;50.096;20.014;2022-11-15T06:30:34;99097.05;;;6.69;73.04
33286;BME280;19656;50.096;20.014;2022-11-15T06:36:03;99094.55;;;6.69;72.82
33286;BME280;19656;50.096;20.014;2022-11-15T06:41:26;99092.99;;;6.72;72.70
33286;BME280;19656;50.096;20.014;2022-11-15T06:46:49;99094.10;;;6.71;72.73
33286;BME280;19656;50.096;20.014;2022-11-15T06:52:11;99101.84;;;6.63;72.40
33286;BME280;19656;50.096;20.014;2022-11-15T06:57:34;99100.91;;;6.57;72.10
33286;BME280;19656;50.096;20.014;2022-11-15T07:03:01;99104.55;;;6.55;72.33
33286;BME280;19656;50.096;20.014;2022-11-15T07:08:27;99100.32;;;6.54;71.98
33286;BME280;19656;50.096;20.014;2022-11-15T07:13:50;99102.52;;;6.53;72.09
33286;BME280;19656;50.096;20.014;2022-11-15T07:19:12;99111.20;;;6.52;71.76
33286;BME280;19656;50.096;20.014;2022-11-15T07:24:37;99110.06;;;6.37;71.94
33286;BME280;19656;50.096;20.014;2022-11-15T07:29:59;99102.14;;;6.37;72.44
33286;BME280;19656;50.096;20.014;2022-11-15T07:35:22;99091.91;;;6.41;72.74
33286;BME280;19656;50.096;20.014;2022-11-15T07:40:46;99083.40;;;6.47;72.91
33286;BME280;19656;50.096;20.014;2022-11-15T07:46:10;99091.56;;;6.45;72.59
33286;BME280;19656;50.096;20.014;2022-11-15T07:51:32;99086.64;;;6.45;72.69
33286;BME280;19656;50.096;20.014;2022-11-15T07:56:56;99083.54;;;6.51;72.41
33286;BME280;19656;50.096;20.014;2022-11-15T08:02:26;99078.41;;;6.55;72.27
33286;BME280;19656;50.096;20.014;2022-11-15T08:07:55;99073.44;;;6.60;72.25
33286;BME280;19656;50.096;20.014;2022-11-15T08:13:19;99065.30;;;6.65;72.28
33286;BME280;19656;50.096;20.014;2022-11-15T08:18:43;99061.45;;;6.68;72.19
33286;BME280;19656;50.096;20.014;2022-11-15T08:24:09;99058.70;;;6.70;72.29
33286;BME280;19656;50.096;20.014;2022-11-15T08:29:32;99063.27;;;6.78;72.45
33286;BME280;19656;50.096;20.014;2022-11-15T08:34:56;99059.21;;;6.78;72.26
33286;BME280;19656;50.096;20.014;2022-11-15T08:40:19;99054.83;;;6.85;72.46
33286;BME280;19656;50.096;20.014;2022-11-15T08:45:42;99051.21;;;6.98;72.56
33286;BME280;19656;50.096;20.014;2022-11-15T08:51:06;99046.61;;;7.10;72.54
33286;BME280;19656;50.096;20.014;2022-11-15T08:56:29;99048.02;;;7.18;72.38
33286;BME280;19656;50.096;20.014;2022-11-15T09:01:52;99048.26;;;7.20;72.35
33286;BME280;19656;50.096;20.014;2022-11-15T09:07:17;99041.30;;;7.25;72.68
33286;BME280;19656;50.096;20.014;2022-11-15T09:12:40;99037.61;;;7.28;72.60
33286;BME280;19656;50.096;20.014;2022-11-15T09:18:04;99034.32;;;7.34;72.82
33286;BME280;19656;50.096;20.014;2022-11-15T09:23:26;99028.05;;;7.44;72.46
33286;BME280;19656;50.096;20.014;2022-11-15T09:28:49;99020.38;;;7.52;72.60
33286;BME280;19656;50.096;20.014;2022-11-15T09:34:14;99015.85;;;7.65;72.46
33286;BME280;19656;50.096;20.014;2022-11-15T09:39:37;99013.71;;;7.76;72.42
33286;BME280;19656;50.096;20.014;2022-11-15T09:50:42;99009.52;;;7.96;71.88
33286;BME280;19656;50.096;20.014;2022-11-15T09:56:02;99005.36;;;8.01;71.81
33286;BME280;19656;50.096;20.014;2022-11-15T10:01:16;99004.31;;;8.04;71.81
33286;BME280;19656;50.096;20.014;2022-11-15T10:06:24;98991.50;;;8.16;72.37
33286;BME280;19656;50.096;20.014;2022-11-15T10:11:32;98978.31;;;8.38;72.07
33286;BME280;19656;50.096;20.014;2022-11-15T10:22:26;98957.80;;;9.02;71.25
33286;BME280;19656;50.096;20.014;2022-11-15T10:27:30;98953.35;;;9.36;70.62
33286;BME280;19656;50.096;20.014;2022-11-15T10:32:36;98944.06;;;9.53;69.72
33286;BME280;19656;50.096;20.014;2022-11-15T10:37:40;98938.67;;;9.75;69.16
33286;BME280;19656;50.096;20.014;2022-11-15T10:42:43;98924.55;;;9.91;68.26
33286;BME280;19656;50.096;20.014;2022-11-15T10:47:48;98914.91;;;10.01;68.04
33286;BME280;19656;50.096;20.014;2022-11-15T10:52:53;98904.20;;;10.11;68.06
33286;BME280;19656;50.096;20.014;2022-11-15T10:58:21;98898.20;;;10.13;67.37
33286;BME280;19656;50.096;20.014;2022-11-15T11:03:30;98887.61;;;10.12;67.63
33286;BME280;19656;50.096;20.014;2022-11-15T11:08:38;98876.11;;;10.17;67.62
33286;BME280;19656;50.096;20.014;2022-11-15T11:13:44;98873.23;;;10.24;67.72
33286;BME280;19656;50.096;20.014;2022-11-15T11:35:05;98845.04;;;11.00;66.41
33286;BME280;19656;50.096;20.014;2022-11-15T11:46:05;98837.58;;;11.34;65.79
33286;BME280;19656;50.096;20.014;2022-11-15T11:51:18;98832.44;;;11.55;64.96
33286;BME280;19656;50.096;20.014;2022-11-15T11:56:33;98825.55;;;11.72;64.54
33286;BME280;19656;50.096;20.014;2022-11-15T12:01:42;98811.52;;;11.85;64.08
33286;BME280;19656;50.096;20.014;2022-11-15T12:06:55;98803.65;;;11.88;64.01
33286;BME280;19656;50.096;20.014;2022-11-15T12:12:11;98795.42;;;11.92;63.73
33286;BME280;19656;50.096;20.014;2022-11-15T12:17:24;98791.32;;;12.01;63.35
33286;BME280;19656;50.096;20.014;2022-11-15T12:22:53;98791.04;;;12.03;63.26
33286;BME280;19656;50.096;20.014;2022-11-15T12:28:16;98787.52;;;12.02;63.32
33286;BME280;19656;50.096;20.014;2022-11-15T12:43:59;98778.63;;;11.85;63.21
33286;BME280;19656;50.096;20.014;2022-11-15T13:00:01;98760.02;;;11.54;63.16
33286;BME280;19656;50.096;20.014;2022-11-15T13:20:45;98742.48;;;11.41;63.78
33286;BME280;19656;50.096;20.014;2022-11-15T13:26:10;98740.96;;;11.42;63.99
33286;BME280;19656;50.096;20.014;2022-11-15T13:31:30;98736.48;;;11.45;63.89
33286;BME280;19656;50.096;20.014;2022-11-15T13:36:37;98738.27;;;11.42;64.13
33286;BME280;19656;50.096;20.014;2022-11-15T13:41:48;98730.48;;;11.40;64.51
33286;BME280;19656;50.096;20.014;2022-11-15T13:47:28;98722.21;;;11.36;64.40
33286;BME280;19656;50.096;20.014;2022-11-15T13:52:34;98711.91;;;11.35;64.54
33286;BME280;19656;50.096;20.014;2022-11-15T13:57:44;98706.82;;;11.32;64.92
33286;BME280;19656;50.096;20.014;2022-11-15T14:02:48;98700.45;;;11.30;65.24
33286;BME280;19656;50.096;20.014;2022-11-15T14:07:56;98696.20;;;11.27;65.72
33286;BME280;19656;50.096;20.014;2022-11-15T14:13:00;98698.75;;;11.24;65.91
33286;BME280;19656;50.096;20.014;2022-11-15T14:18:05;98700.55;;;11.26;66.04
33286;BME280;19656;50.096;20.014;2022-11-15T14:23:28;98698.40;;;11.31;65.79
33286;BME280;19656;50.096;20.014;2022-11-15T14:28:33;98687.77;;;11.35;65.49
33286;BME280;19656;50.096;20.014;2022-11-15T14:33:41;98688.64;;;11.36;65.87
33286;BME280;19656;50.096;20.014;2022-11-15T14:38:44;98683.09;;;11.34;66.33
33286;BME280;19656;50.096;20.014;2022-11-15T14:43:48;98675.74;;;11.32;65.98
33286;BME280;19656;50.096;20.014;2022-11-15T14:48:51;98670.86;;;11.31;66.01
33286;BME280;19656;50.096;20.014;2022-11-15T14:53:54;98664.02;;;11.30;65.67
33286;BME280;19656;50.096;20.014;2022-11-15T14:58:58;98656.30;;;11.26;65.63
33286;BME280;19656;50.096;20.014;2022-11-15T15:04:01;98658.77;;;11.21;65.72
33286;BME280;19656;50.096;20.014;2022-11-15T15:09:04;98654.14;;;11.29;67.87
33286;BME280;19656;50.096;20.014;2022-11-15T15:14:08;98653.84;;;11.63;67.60
33286;BME280;19656;50.096;20.014;2022-11-15T15:19:11;98648.15;;;11.56;65.49
33286;BME280;19656;50.096;20.014;2022-11-15T15:24:14;98637.90;;;11.52;65.49
33286;BME280;19656;50.096;20.014;2022-11-15T15:29:17;98639.04;;;11.54;65.37
33286;BME280;19656;50.096;20.014;2022-11-15T15:34:20;98635.48;;;11.51;65.32
33286;BME280;19656;50.096;20.014;2022-11-15T15:39:23;98630.52;;;11.44;65.02
33286;BME280;19656;50.096;20.014;2022-11-15T15:44:26;98633.58;;;11.38;65.58
33286;BME280;19656;50.096;20.014;2022-11-15T15:49:29;98634.91;;;11.35;65.35
33286;BME280;19656;50.096;20.014;2022-11-15T15:54:32;98636.43;;;11.31;65.64
33286;BME280;19656;50.096;20.014;2022-11-15T15:59:35;98622.86;;;11.27;65.58
33286;BME280;19656;50.096;20.014;2022-11-15T16:04:39;98628.14;;;11.25;66.25
33286;BME280;19656;50.096;20.014;2022-11-15T16:09:42;98625.16;;;11.24;66.06
33286;BME280;19656;50.096;20.014;2022-11-15T16:15:04;98621.20;;;11.23;65.87
33286;BME280;19656;50.096;20.014;2022-11-15T16:20:21;98623.42;;;11.22;65.92
33286;BME280;19656;50.096;20.014;2022-11-15T16:25:25;98617.61;;;11.33;66.30
33286;BME280;19656;50.096;20.014;2022-11-15T16:30:28;98616.94;;;11.38;65.75
33286;BME280;19656;50.096;20.014;2022-11-15T16:35:31;98616.83;;;11.39;65.39
33286;BME280;19656;50.096;20.014;2022-11-15T16:40:34;98611.25;;;11.38;65.42
33286;BME280;19656;50.096;20.014;2022-11-15T16:45:38;98606.81;;;11.38;65.71
33286;BME280;19656;50.096;20.014;2022-11-15T16:50:41;98603.20;;;11.39;65.68
33286;BME280;19656;50.096;20.014;2022-11-15T16:55:44;98600.36;;;11.33;65.79
33286;BME280;19656;50.096;20.014;2022-11-15T17:00:55;98598.38;;;11.27;66.16
33286;BME280;19656;50.096;20.014;2022-11-15T17:05:58;98593.05;;;11.20;66.57
33286;BME280;19656;50.096;20.014;2022-11-15T17:11:08;98587.39;;;11.14;66.95
33286;BME280;19656;50.096;20.014;2022-11-15T17:16:13;98580.90;;;11.13;67.10
33286;BME280;19656;50.096;20.014;2022-11-15T17:21:19;98576.77;;;11.21;66.65
33286;BME280;19656;50.096;20.014;2022-11-15T17:26:22;98578.07;;;11.28;66.66
33286;BME280;19656;50.096;20.014;2022-11-15T17:31:35;98576.58;;;11.31;66.49
33286;BME280;19656;50.096;20.014;2022-11-15T17:36:38;98569.99;;;11.29;66.55
33286;BME280;19656;50.096;20.014;2022-11-15T17:41:41;98566.38;;;11.25;66.64
33286;BME280;19656;50.096;20.014;2022-11-15T17:46:44;98565.09;;;11.21;66.87
33286;BME280;19656;50.096;20.014;2022-11-15T17:51:47;98561.30;;;11.19;66.62
33286;BME280;19656;50.096;20.014;2022-11-15T17:56:51;98558.06;;;11.19;67.32
33286;BME280;19656;50.096;20.014;2022-11-15T18:01:54;98551.56;;;11.26;67.40
33286;BME280;19656;50.096;20.014;2022-11-15T18:06:57;98545.11;;;11.34;67.40
33286;BME280;19656;50.096;20.014;2022-11-15T18:12:00;98541.31;;;11.37;66.90
33286;BME280;19656;50.096;20.014;2022-11-15T18:17:03;98530.84;;;11.40;66.95
33286;BME280;19656;50.096;20.014;2022-11-15T18:22:07;98527.09;;;11.40;66.82
33286;BME280;19656;50.096;20.014;2022-11-15T18:27:11;98523.91;;;11.40;66.64
33286;BME280;19656;50.096;20.014;2022-11-15T18:32:14;98520.42;;;11.36;66.34
33286;BME280;19656;50.096;20.014;2022-11-15T18:37:19;98516.34;;;11.34;66.88
33286;BME280;19656;50.096;20.014;2022-11-15T18:42:22;98515.41;;;11.30;66.89
33286;BME280;19656;50.096;20.014;2022-11-15T18:47:25;98514.45;;;11.26;67.33
33286;BME280;19656;50.096;20.014;2022-11-15T18:52:28;98508.65;;;11.23;67.21
33286;BME280;19656;50.096;20.014;2022-11-15T18:57:31;98504.66;;;11.21;67.42
33286;BME280;19656;50.096;20.014;2022-11-15T19:02:34;98504.23;;;11.18;67.68
33286;BME280;19656;50.096;20.014;2022-11-15T19:07:37;98502.92;;;11.18;68.07
33286;BME280;19656;50.096;20.014;2022-11-15T19:12:40;98495.21;;;11.29;68.10
33286;BME280;19656;50.096;20.014;2022-11-15T19:17:43;98497.42;;;11.35;67.84
33286;BME280;19656;50.096;20.014;2022-11-15T19:22:47;98490.95;;;11.31;67.37
33286;BME280;19656;50.096;20.014;2022-11-15T19:27:50;98486.83;;;11.25;67.42
33286;BME280;19656;50.096;20.014;2022-11-15T19:32:53;98488.12;;;11.24;67.87
33286;BME280;19656;50.096;20.014;2022-11-15T19:37:55;98487.29;;;11.33;67.95
33286;BME280;19656;50.096;20.014;2022-11-15T19:42:58;98482.83;;;11.26;67.81
33286;BME280;19656;50.096;20.014;2022-11-15T19:48:02;98476.96;;;11.16;67.82
33286;BME280;19656;50.096;20.014;2022-11-15T19:53:05;98472.61;;;11.10;67.83
33286;BME280;19656;50.096;20.014;2022-11-15T19:58:08;98474.31;;;11.04;68.37
33286;BME280;19656;50.096;20.014;2022-11-15T20:03:11;98468.95;;;11.04;68.36
33286;BME280;19656;50.096;20.014;2022-11-15T20:08:14;98464.70;;;11.04;68.18
33286;BME280;19656;50.096;20.014;2022-11-15T20:13:17;98453.26;;;11.01;68.26
33286;BME280;19656;50.096;20.014;2022-11-15T20:18:21;98448.58;;;10.97;68.72
33286;BME280;19656;50.096;20.014;2022-11-15T20:23:27;98450.33;;;10.90;68.78
33286;BME280;19656;50.096;20.014;2022-11-15T20:28:30;98453.22;;;10.84;68.73
33286;BME280;19656;50.096;20.014;2022-11-15T20:33:34;98452.25;;;10.78;69.09
33286;BME280;19656;50.096;20.014;2022-11-15T20:38:38;98455.30;;;10.75;69.28
33286;BME280;19656;50.096;20.014;2022-11-15T20:43:41;98447.30;;;10.73;69.75
33286;BME280;19656;50.096;20.014;2022-11-15T20:48:45;98441.12;;;10.77;69.62
33286;BME280;19656;50.096;20.014;2022-11-15T20:53:49;98437.33;;;10.83;69.65
33286;BME280;19656;50.096;20.014;2022-11-15T20:58:52;98425.12;;;10.85;69.73
33286;BME280;19656;50.096;20.014;2022-11-15T21:03:57;98421.84;;;10.86;69.87
33286;BME280;19656;50.096;20.014;2022-11-15T21:09:00;98419.16;;;10.84;69.85
33286;BME280;19656;50.096;20.014;2022-11-15T21:14:21;98418.59;;;10.82;70.12
33286;BME280;19656;50.096;20.014;2022-11-15T21:19:24;98411.52;;;10.77;70.47
33286;BME280;19656;50.096;20.014;2022-11-15T21:24:37;98404.70;;;10.75;70.63
33286;BME280;19656;50.096;20.014;2022-11-15T21:29:40;98397.90;;;10.76;70.59
33286;BME280;19656;50.096;20.014;2022-11-15T21:34:47;98398.09;;;10.83;70.60
33286;BME280;19656;50.096;20.014;2022-11-15T21:39:50;98391.02;;;10.88;70.76
33286;BME280;19656;50.096;20.014;2022-11-15T21:44:53;98388.75;;;10.89;70.80
33286;BME280;19656;50.096;20.014;2022-11-15T21:49:56;98389.73;;;10.88;70.63
33286;BME280;19656;50.096;20.014;2022-11-15T21:54:59;98387.30;;;10.83;70.52
33286;BME280;19656;50.096;20.014;2022-11-15T22:00:03;98378.11;;;10.78;70.50
33286;BME280;19656;50.096;20.014;2022-11-15T22:05:25;98366.40;;;10.77;70.66
33286;BME280;19656;50.096;20.014;2022-11-15T22:10:28;98359.35;;;10.79;70.60
33286;BME280;19656;50.096;20.014;2022-11-15T22:15:32;98355.92;;;10.82;70.72
33286;BME280;19656;50.096;20.014;2022-11-15T22:20:35;98347.44;;;10.80;70.40
33286;BME280;19656;50.096;20.014;2022-11-15T22:25:46;98343.38;;;10.77;70.41
33286;BME280;19656;50.096;20.014;2022-11-15T22:30:51;98331.51;;;10.70;70.50
33286;BME280;19656;50.096;20.014;2022-11-15T22:35:54;98333.66;;;10.70;70.64
33286;BME280;19656;50.096;20.014;2022-11-15T22:40:58;98332.84;;;10.71;70.44
33286;BME280;19656;50.096;20.014;2022-11-15T22:46:03;98336.47;;;10.75;71.01
33286;BME280;19656;50.096;20.014;2022-11-15T22:51:06;98332.08;;;10.83;70.35
33286;BME280;19656;50.096;20.014;2022-11-15T22:56:10;98327.77;;;10.91;70.92
33286;BME280;19656;50.096;20.014;2022-11-15T23:01:20;98324.88;;;10.94;70.81
33286;BME280;19656;50.096;20.014;2022-11-15T23:06:26;98318.98;;;10.95;70.35
33286;BME280;19656;50.096;20.014;2022-11-15T23:11:29;98318.39;;;10.93;70.02
33286;BME280;19656;50.096;20.014;2022-11-15T23:16:50;98311.31;;;10.90;70.10
33286;BME280;19656;50.096;20.014;2022-11-15T23:21:53;98296.53;;;10.84;70.63
33286;BME280;19656;50.096;20.014;2022-11-15T23:27:15;98287.80;;;10.80;70.96
33286;BME280;19656;50.096;20.014;2022-11-15T23:32:21;98283.95;;;10.84;70.96
33286;BME280;19656;50.096;20.014;2022-11-15T23:37:43;98273.04;;;10.87;71.09
33286;BME280;19656;50.096;20.014;2022-11-15T23:42:46;98266.67;;;10.87;71.32
33286;BME280;19656;50.096;20.014;2022-11-15T23:47:49;98261.88;;;10.87;71.55
33286;BME280;19656;50.096;20.014;2022-11-15T23:52:52;98255.84;;;10.85;71.31
33286;BME280;19656;50.096;20.014;2022-11-15T23:57:55;98248.35;;;10.83;71.93
